sensor_id;sensor_type;location;lat;lon;timestamp;pressure;altitude;pressure_sealevel;temperature;humidity
47670;BME280;33408;52.062;11.722;2022-12-07T00:01:47;100993.03;;;1.51;100.00
47670;BME280;33408;52.062;11.722;2022-12-07T00:04:15;100984.22;;;1.38;100.00
47670;BME280;33408;52.062;11.722;2022-12-07T00:06:43;100990.25;;;1.40;100.00
47670;BME280;33408;52.062;11.722;2022-12-07T00:09:12;100974.75;;;1.33;100.00
47670;BME280;33408;52.062;11.722;2022-12-07T00:11:40;100973.19;;;1.39;100.00
47670;BME280;33408;52.062;11.722;2022-12-07T00:14:10;100968.72;;;1.29;100.00
47670;BME280;33408;52.062;11.722;2022-12-07T00:16:37;100968.13;;;1.41;100.00
47670;BME280;33408;52.062;11.722;2022-12-07T00:19:04;100966.13;;;1.27;100.00
47670;BME280;33408;52.062;11.722;2022-12-07T00:21:32;100974.94;;;1.40;100.00
47670;BME280;33408;52.062;11.722;2022-12-07T00:24:00;100965.41;;;1.35;100.00
47670;BME280;33408;52.062;11.722;2022-12-07T00:26:28;100963.06;;;1.42;100.00
47670;BME280;33408;52.062;11.722;2022-12-07T00:28:58;100956.03;;;1.32;100.00
47670;BME280;33408;52.062;11.722;2022-12-07T00:31:26;100954.22;;;1.28;100.00
47670;BME280;33408;52.062;11.722;2022-12-07T00:33:53;100950.72;;;1.24;100.00
47670;BME280;33408;52.062;11.722;2022-12-07T00:36:21;100943.13;;;1.27;100.00
47670;BME280;33408;52.062;11.722;2022-12-07T00:38:48;100944.84;;;1.28;100.00
47670;BME280;33408;52.062;11.722;2022-12-07T00:41:17;100948.34;;;1.32;100.00
47670;BME280;33408;52.062;11.722;2022-12-07T00:43:45;100944.06;;;1.31;100.00
47670;BME280;33408;52.062;11.722;2022-12-07T00:46:13;100939.41;;;1.13;100.00
47670;BME280;33408;52.062;11.722;2022-12-07T00:48:40;100935.47;;;1.27;100.00
47670;BME280;33408;52.062;11.722;2022-12-07T00:51:09;100931.06;;;1.22;100.00
47670;BME280;33408;52.062;11.722;2022-12-07T00:53:36;100931.00;;;1.19;100.00
47670;BME280;33408;52.062;11.722;2022-12-07T00:56:05;100928.28;;;1.11;100.00
47670;BME280;33408;52.062;11.722;2022-12-07T00:58:32;100924.81;;;1.09;100.00
47670;BME280;33408;52.062;11.722;2022-12-07T01:00:59;100921.72;;;1.21;100.00
47670;BME280;33408;52.062;11.722;2022-12-07T01:03:28;100919.97;;;1.20;100.00
47670;BME280;33408;52.062;11.722;2022-12-07T01:05:55;100923.84;;;1.40;100.00
47670;BME280;33408;52.062;11.722;2022-12-07T01:08:22;100921.25;;;1.39;100.00
47670;BME280;33408;52.062;11.722;2022-12-07T01:10:57;100912.34;;;1.61;100.00
47670;BME280;33408;52.062;11.722;2022-12-07T01:13:24;100911.31;;;1.53;100.00
47670;BME280;33408;52.062;11.722;2022-12-07T01:15:51;100909.59;;;1.50;100.00
47670;BME280;33408;52.062;11.722;2022-12-07T01:18:17;100908.75;;;1.53;100.00
47670;BME280;33408;52.062;11.722;2022-12-07T01:20:57;100906.81;;;1.41;100.00
47670;BME280;33408;52.062;11.722;2022-12-07T01:23:23;100910.28;;;1.44;100.00
47670;BME280;33408;52.062;11.722;2022-12-07T01:25:54;100922.25;;;1.45;100.00
47670;BME280;33408;52.062;11.722;2022-12-07T01:28:21;100911.38;;;1.56;100.00
47670;BME280;33408;52.062;11.722;2022-12-07T01:30:55;100915.03;;;1.67;100.00
47670;BME280;33408;52.062;11.722;2022-12-07T01:33:21;100905.00;;;1.76;100.00
47670;BME280;33408;52.062;11.722;2022-12-07T01:35:49;100915.09;;;1.70;100.00
47670;BME280;33408;52.062;11.722;2022-12-07T01:38:16;100902.53;;;1.81;100.00
47670;BME280;33408;52.062;11.722;2022-12-07T01:40:42;100898.09;;;1.71;100.00
47670;BME280;33408;52.062;11.722;2022-12-07T01:43:14;100898.88;;;1.68;100.00
47670;BME280;33408;52.062;11.722;2022-12-07T01:45:43;100898.78;;;1.63;100.00
47670;BME280;33408;52.062;11.722;2022-12-07T01:48:11;100893.31;;;1.45;100.00
47670;BME280;33408;52.062;11.722;2022-12-07T01:50:40;100892.44;;;1.46;100.00
47670;BME280;33408;52.062;11.722;2022-12-07T01:53:09;100891.59;;;1.45;100.00
47670;BME280;33408;52.062;11.722;2022-12-07T01:55:40;100883.44;;;1.63;100.00
47670;BME280;33408;52.062;11.722;2022-12-07T01:58:09;100885.81;;;1.54;100.00
47670;BME280;33408;52.062;11.722;2022-12-07T02:00:36;100887.91;;;1.33;100.00
47670;BME280;33408;52.062;11.722;2022-12-07T02:03:05;100885.88;;;1.57;100.00
47670;BME280;33408;52.062;11.722;2022-12-07T02:05:34;100873.06;;;1.56;100.00
47670;BME280;33408;52.062;11.722;2022-12-07T02:08:02;100866.94;;;1.48;100.00
47670;BME280;33408;52.062;11.722;2022-12-07T02:10:31;100871.44;;;1.58;100.00
47670;BME280;33408;52.062;11.722;2022-12-07T02:13:01;100871.63;;;1.69;100.00
47670;BME280;33408;52.062;11.722;2022-12-07T02:15:37;100862.44;;;1.78;100.00
47670;BME280;33408;52.062;11.722;2022-12-07T02:18:14;100865.00;;;1.78;100.00
47670;BME280;33408;52.062;11.722;2022-12-07T02:20:47;100858.91;;;1.72;100.00
47670;BME280;33408;52.062;11.722;2022-12-07T02:23:54;100845.47;;;1.80;100.00
47670;BME280;33408;52.062;11.722;2022-12-07T02:29:31;100838.44;;;1.70;100.00
47670;BME280;33408;52.062;11.722;2022-12-07T02:32:04;100839.31;;;1.71;100.00
47670;BME280;33408;52.062;11.722;2022-12-07T02:34:40;100829.38;;;1.86;100.00
47670;BME280;33408;52.062;11.722;2022-12-07T02:37:16;100830.94;;;1.79;100.00
47670;BME280;33408;52.062;11.722;2022-12-07T02:39:48;100826.09;;;1.93;100.00
47670;BME280;33408;52.062;11.722;2022-12-07T02:42:19;100825.19;;;1.91;100.00
47670;BME280;33408;52.062;11.722;2022-12-07T02:44:50;100818.53;;;2.01;100.00
47670;BME280;33408;52.062;11.722;2022-12-07T02:47:19;100820.06;;;1.90;100.00
47670;BME280;33408;52.062;11.722;2022-12-07T02:49:49;100821.88;;;1.95;100.00
47670;BME280;33408;52.062;11.722;2022-12-07T02:52:15;100812.44;;;1.93;100.00
47670;BME280;33408;52.062;11.722;2022-12-07T02:54:42;100811.00;;;2.07;100.00
47670;BME280;33408;52.062;11.722;2022-12-07T02:57:19;100809.94;;;1.96;100.00
47670;BME280;33408;52.062;11.722;2022-12-07T03:00:00;100801.34;;;1.91;100.00
47670;BME280;33408;52.062;11.722;2022-12-07T03:02:35;100799.50;;;1.84;100.00
47670;BME280;33408;52.062;11.722;2022-12-07T03:05:15;100798.78;;;1.91;100.00
47670;BME280;33408;52.062;11.722;2022-12-07T03:07:51;100799.53;;;1.87;100.00
47670;BME280;33408;52.062;11.722;2022-12-07T03:10:24;100806.75;;;2.09;100.00
47670;BME280;33408;52.062;11.722;2022-12-07T03:13:01;100797.34;;;2.07;100.00
47670;BME280;33408;52.062;11.722;2022-12-07T03:15:33;100794.88;;;2.11;100.00
47670;BME280;33408;52.062;11.722;2022-12-07T03:18:03;100783.50;;;1.94;100.00
47670;BME280;33408;52.062;11.722;2022-12-07T03:20:32;100779.31;;;1.99;100.00
47670;BME280;33408;52.062;11.722;2022-12-07T03:23:03;100778.47;;;1.98;100.00
47670;BME280;33408;52.062;11.722;2022-12-07T03:25:31;100776.91;;;2.07;100.00
47670;BME280;33408;52.062;11.722;2022-12-07T03:28:02;100776.06;;;2.06;100.00
47670;BME280;33408;52.062;11.722;2022-12-07T03:30:37;100771.13;;;2.18;100.00
47670;BME280;33408;52.062;11.722;2022-12-07T03:33:12;100772.00;;;2.21;100.00
47670;BME280;33408;52.062;11.722;2022-12-07T03:35:41;100779.59;;;2.14;100.00
47670;BME280;33408;52.062;11.722;2022-12-07T03:38:13;100770.19;;;2.13;100.00
47670;BME280;33408;52.062;11.722;2022-12-07T03:40:45;100767.78;;;2.23;100.00
47670;BME280;33408;52.062;11.722;2022-12-07T03:43:15;100760.25;;;2.30;100.00
47670;BME280;33408;52.062;11.722;2022-12-07T03:45:48;100755.09;;;2.29;100.00
47670;BME280;33408;52.062;11.722;2022-12-07T03:48:25;100759.56;;;2.42;100.00
47670;BME280;33408;52.062;11.722;2022-12-07T03:51:00;100744.22;;;2.42;100.00
47670;BME280;33408;52.062;11.722;2022-12-07T03:53:34;100745.84;;;2.37;100.00
47670;BME280;33408;52.062;11.722;2022-12-07T03:56:02;100744.19;;;2.41;100.00
47670;BME280;33408;52.062;11.722;2022-12-07T03:58:29;100737.31;;;2.38;100.00
47670;BME280;33408;52.062;11.722;2022-12-07T04:00:58;100739.06;;;2.41;100.00
47670;BME280;33408;52.062;11.722;2022-12-07T04:03:24;100748.28;;;2.29;100.00
47670;BME280;33408;52.062;11.722;2022-12-07T04:05:51;100739.88;;;2.38;100.00
47670;BME280;33408;52.062;11.722;2022-12-07T04:08:18;100740.72;;;2.35;100.00
47670;BME280;33408;52.062;11.722;2022-12-07T04:10:44;100751.84;;;2.39;100.00
47670;BME280;33408;52.062;11.722;2022-12-07T04:13:11;100750.16;;;2.41;100.00
47670;BME280;33408;52.062;11.722;2022-12-07T04:15:38;100747.72;;;2.49;100.00
47670;BME280;33408;52.062;11.722;2022-12-07T04:18:05;100754.66;;;2.58;100.00
47670;BME280;33408;52.062;11.722;2022-12-07T04:20:32;100742.69;;;2.53;100.00
47670;BME280;33408;52.062;11.722;2022-12-07T04:22:59;100754.69;;;2.61;100.00
47670;BME280;33408;52.062;11.722;2022-12-07T04:25:25;100750.50;;;2.64;100.00
47670;BME280;33408;52.062;11.722;2022-12-07T04:27:52;100745.44;;;2.67;100.00
47670;BME280;33408;52.062;11.722;2022-12-07T04:30:19;100749.66;;;2.65;100.00
47670;BME280;33408;52.062;11.722;2022-12-07T04:32:45;100739.41;;;2.64;100.00
47670;BME280;33408;52.062;11.722;2022-12-07T04:35:13;100738.59;;;2.66;100.00
47670;BME280;33408;52.062;11.722;2022-12-07T04:37:40;100745.47;;;2.69;100.00
47670;BME280;33408;52.062;11.722;2022-12-07T04:40:08;100744.56;;;2.67;100.00
47670;BME280;33408;52.062;11.722;2022-12-07T04:42:37;100734.53;;;2.82;100.00
47670;BME280;33408;52.062;11.722;2022-12-07T04:45:04;100733.69;;;2.83;100.00
47670;BME280;33408;52.062;11.722;2022-12-07T04:47:31;100722.63;;;2.84;100.00
47670;BME280;33408;52.062;11.722;2022-12-07T04:49:58;100726.78;;;2.78;100.00
47670;BME280;33408;52.062;11.722;2022-12-07T04:52:26;100729.44;;;2.82;100.00
47670;BME280;33408;52.062;11.722;2022-12-07T04:54:54;100724.25;;;2.79;100.00
47670;BME280;33408;52.062;11.722;2022-12-07T04:57:21;100723.38;;;2.77;100.00
47670;BME280;33408;52.062;11.722;2022-12-07T04:59:48;100714.75;;;2.72;100.00
47670;BME280;33408;52.062;11.722;2022-12-07T05:02:14;100717.41;;;2.78;100.00
47670;BME280;33408;52.062;11.722;2022-12-07T05:04:41;100723.44;;;2.83;100.00
47670;BME280;33408;52.062;11.722;2022-12-07T05:07:07;100719.22;;;2.85;100.00
47670;BME280;33408;52.062;11.722;2022-12-07T05:09:35;100710.72;;;2.89;100.00
47670;BME280;33408;52.062;11.722;2022-12-07T05:12:02;100706.50;;;2.90;100.00
47670;BME280;33408;52.062;11.722;2022-12-07T05:14:29;100709.00;;;2.87;100.00
47670;BME280;33408;52.062;11.722;2022-12-07T05:16:55;100714.09;;;2.85;100.00
47670;BME280;33408;52.062;11.722;2022-12-07T05:19:22;100721.81;;;2.87;100.00
47670;BME280;33408;52.062;11.722;2022-12-07T05:21:48;100726.03;;;2.86;100.00
47670;BME280;33408;52.062;11.722;2022-12-07T05:24:16;100717.63;;;2.94;100.00
47670;BME280;33408;52.062;11.722;2022-12-07T05:26:44;100719.31;;;2.95;100.00
47670;BME280;33408;52.062;11.722;2022-12-07T05:29:12;100708.19;;;2.91;100.00
47670;BME280;33408;52.062;11.722;2022-12-07T05:31:39;100721.88;;;2.95;100.00
47670;BME280;33408;52.062;11.722;2022-12-07T05:34:06;100712.50;;;2.94;100.00
47670;BME280;33408;52.062;11.722;2022-12-07T05:36:32;100703.81;;;2.82;100.00
47670;BME280;33408;52.062;11.722;2022-12-07T05:38:59;100709.00;;;2.85;100.00
47670;BME280;33408;52.062;11.722;2022-12-07T05:41:26;100706.34;;;2.79;100.00
47670;BME280;33408;52.062;11.722;2022-12-07T05:44:11;100711.44;;;2.78;100.00
47670;BME280;33408;52.062;11.722;2022-12-07T05:46:38;100708.84;;;2.74;100.00
47670;BME280;33408;52.062;11.722;2022-12-07T05:49:05;100715.75;;;2.80;100.00
47670;BME280;33408;52.062;11.722;2022-12-07T05:51:31;100713.16;;;2.77;100.00
47670;BME280;33408;52.062;11.722;2022-12-07T05:53:58;100712.38;;;2.84;100.00
47670;BME280;33408;52.062;11.722;2022-12-07T05:56:24;100723.50;;;2.88;100.00
47670;BME280;33408;52.062;11.722;2022-12-07T05:58:51;100719.28;;;2.90;100.00
47670;BME280;33408;52.062;11.722;2022-12-07T06:01:37;100713.38;;;2.97;100.00
47670;BME280;33408;52.062;11.722;2022-12-07T06:04:03;100712.66;;;3.06;100.00
47670;BME280;33408;52.062;11.722;2022-12-07T06:06:30;100722.88;;;3.03;100.00
47670;BME280;33408;52.062;11.722;2022-12-07T06:08:56;100720.31;;;3.03;100.00
47670;BME280;33408;52.062;11.722;2022-12-07T06:11:23;100714.34;;;3.07;100.00
47670;BME280;33408;52.062;11.722;2022-12-07T06:14:07;100720.31;;;3.04;100.00
47670;BME280;33408;52.062;11.722;2022-12-07T06:16:34;100723.72;;;3.03;100.00
47670;BME280;33408;52.062;11.722;2022-12-07T06:19:02;100720.31;;;3.04;100.00
47670;BME280;33408;52.062;11.722;2022-12-07T06:21:28;100715.13;;;2.98;100.00
47670;BME280;33408;52.062;11.722;2022-12-07T06:23:55;100716.84;;;3.02;100.00
47670;BME280;33408;52.062;11.722;2022-12-07T06:26:22;100719.53;;;3.10;100.00
47670;BME280;33408;52.062;11.722;2022-12-07T06:28:49;100724.59;;;3.07;100.00
47670;BME280;33408;52.062;11.722;2022-12-07T06:31:16;100722.91;;;3.09;100.00
47670;BME280;33408;52.062;11.722;2022-12-07T06:33:42;100719.53;;;3.12;100.00
47670;BME280;33408;52.062;11.722;2022-12-07T06:36:10;100719.56;;;3.15;100.00
47670;BME280;33408;52.062;11.722;2022-12-07T06:38:37;100719.47;;;3.07;100.00
47670;BME280;33408;52.062;11.722;2022-12-07T06:41:04;100710.97;;;3.08;100.00
47670;BME280;33408;52.062;11.722;2022-12-07T06:43:31;100718.66;;;3.08;100.00
47670;BME280;33408;52.062;11.722;2022-12-07T06:45:58;100714.38;;;3.08;100.00
47670;BME280;33408;52.062;11.722;2022-12-07T06:48:24;100719.47;;;3.05;100.00
47670;BME280;33408;52.062;11.722;2022-12-07T06:50:51;100711.84;;;3.10;100.00
47670;BME280;33408;52.062;11.722;2022-12-07T06:53:20;100717.75;;;3.04;100.00
47670;BME280;33408;52.062;11.722;2022-12-07T06:55:46;100709.16;;;3.01;100.00
47670;BME280;33408;52.062;11.722;2022-12-07T06:58:13;100710.03;;;3.01;100.00
47670;BME280;33408;52.062;11.722;2022-12-07T07:00:39;100711.84;;;3.10;100.00
47670;BME280;33408;52.062;11.722;2022-12-07T07:03:06;100722.06;;;3.08;100.00
47670;BME280;33408;52.062;11.722;2022-12-07T07:05:33;100713.59;;;3.14;100.00
47670;BME280;33408;52.062;11.722;2022-12-07T07:07:59;100722.09;;;3.12;100.00
47670;BME280;33408;52.062;11.722;2022-12-07T07:10:27;100719.59;;;3.16;100.00
47670;BME280;33408;52.062;11.722;2022-12-07T07:12:54;100724.63;;;3.10;100.00
47670;BME280;33408;52.062;11.722;2022-12-07T07:15:20;100721.31;;;3.19;100.00
47670;BME280;33408;52.062;11.722;2022-12-07T07:17:47;100727.28;;;3.16;100.00
47670;BME280;33408;52.062;11.722;2022-12-07T07:20:14;100729.06;;;3.23;100.00
47670;BME280;33408;52.062;11.722;2022-12-07T07:22:40;100726.41;;;3.14;100.00
47670;BME280;33408;52.062;11.722;2022-12-07T07:25:07;100731.56;;;3.19;100.00
47670;BME280;33408;52.062;11.722;2022-12-07T07:27:35;100723.88;;;3.19;100.00
47670;BME280;33408;52.062;11.722;2022-12-07T07:30:02;100734.13;;;3.19;100.00
47670;BME280;33408;52.062;11.722;2022-12-07T07:32:29;100734.06;;;3.13;100.00
47670;BME280;33408;52.062;11.722;2022-12-07T07:34:55;100729.75;;;3.10;100.00
47670;BME280;33408;52.062;11.722;2022-12-07T07:37:23;100727.25;;;3.13;100.00
47670;BME280;33408;52.062;11.722;2022-12-07T07:39:49;100728.00;;;3.04;100.00
47670;BME280;33408;52.062;11.722;2022-12-07T07:42:16;100738.31;;;3.10;100.00
47670;BME280;33408;52.062;11.722;2022-12-07T07:44:44;100739.19;;;3.13;100.00
47670;BME280;33408;52.062;11.722;2022-12-07T07:47:11;100742.56;;;3.08;100.00
47670;BME280;33408;52.062;11.722;2022-12-07T07:49:37;100741.81;;;3.17;100.00
47670;BME280;33408;52.062;11.722;2022-12-07T07:52:05;100738.44;;;3.21;100.00
47670;BME280;33408;52.062;11.722;2022-12-07T07:54:32;100744.50;;;3.28;100.00
47670;BME280;33408;52.062;11.722;2022-12-07T07:56:58;100740.31;;;3.36;100.00
47670;BME280;33408;52.062;11.722;2022-12-07T07:59:25;100736.09;;;3.38;100.00
47670;BME280;33408;52.062;11.722;2022-12-07T08:01:53;100742.81;;;3.28;100.00
47670;BME280;33408;52.062;11.722;2022-12-07T08:04:20;100742.94;;;3.42;100.00
47670;BME280;33408;52.062;11.722;2022-12-07T08:06:46;100742.97;;;3.44;100.00
47670;BME280;33408;52.062;11.722;2022-12-07T08:09:13;100745.53;;;3.45;100.00
47670;BME280;33408;52.062;11.722;2022-12-07T08:11:39;100746.44;;;3.51;100.00
47670;BME280;33408;52.062;11.722;2022-12-07T08:14:06;100742.19;;;3.51;100.00
47670;BME280;33408;52.062;11.722;2022-12-07T08:16:32;100746.38;;;3.46;100.00
47670;BME280;33408;52.062;11.722;2022-12-07T08:19:00;100747.31;;;3.51;100.00
47670;BME280;33408;52.062;11.722;2022-12-07T08:21:27;100754.97;;;3.48;100.00
47670;BME280;33408;52.062;11.722;2022-12-07T08:23:53;100748.06;;;3.42;100.00
47670;BME280;33408;52.062;11.722;2022-12-07T08:26:20;100749.88;;;3.50;100.00
47670;BME280;33408;52.062;11.722;2022-12-07T08:28:47;100745.63;;;3.53;100.00
47670;BME280;33408;52.062;11.722;2022-12-07T08:31:15;100746.50;;;3.57;100.00
47670;BME280;33408;52.062;11.722;2022-12-07T08:33:44;100749.03;;;3.52;100.00
47670;BME280;33408;52.062;11.722;2022-12-07T08:36:12;100744.06;;;3.66;100.00
47670;BME280;33408;52.062;11.722;2022-12-07T08:38:40;100752.78;;;3.83;100.00
47670;BME280;33408;52.062;11.722;2022-12-07T08:41:07;100745.88;;;3.78;100.00
47670;BME280;33408;52.062;11.722;2022-12-07T08:43:35;100751.81;;;3.74;100.00
47670;BME280;33408;52.062;11.722;2022-12-07T08:46:07;100750.16;;;3.77;100.00
47670;BME280;33408;52.062;11.722;2022-12-07T08:48:37;100750.06;;;3.71;100.00
47670;BME280;33408;52.062;11.722;2022-12-07T08:51:05;100745.72;;;3.62;100.00
47670;BME280;33408;52.062;11.722;2022-12-07T08:53:33;100744.91;;;3.68;100.00
47670;BME280;33408;52.062;11.722;2022-12-07T08:56:01;100744.16;;;3.77;100.00
47670;BME280;33408;52.062;11.722;2022-12-07T08:58:28;100757.88;;;3.82;100.00
47670;BME280;33408;52.062;11.722;2022-12-07T09:00:54;100756.94;;;3.74;100.00
47670;BME280;33408;52.062;11.722;2022-12-07T09:03:21;100745.78;;;3.69;100.00
47670;BME280;33408;52.062;11.722;2022-12-07T09:05:47;100751.72;;;3.63;100.00
47670;BME280;33408;52.062;11.722;2022-12-07T09:08:14;100751.66;;;3.58;100.00
47670;BME280;33408;52.062;11.722;2022-12-07T09:10:43;100759.28;;;3.54;100.00
47670;BME280;33408;52.062;11.722;2022-12-07T09:13:09;100760.19;;;3.57;100.00
47670;BME280;33408;52.062;11.722;2022-12-07T09:15:36;100753.41;;;3.61;100.00
47670;BME280;33408;52.062;11.722;2022-12-07T09:18:03;100759.41;;;3.64;100.00
47670;BME280;33408;52.062;11.722;2022-12-07T09:20:29;100761.16;;;3.67;100.00
47670;BME280;33408;52.062;11.722;2022-12-07T09:22:56;100763.75;;;3.73;100.00
47670;BME280;33408;52.062;11.722;2022-12-07T09:25:22;100771.47;;;3.75;100.00
47670;BME280;33408;52.062;11.722;2022-12-07T09:27:56;100770.63;;;3.76;100.00
47670;BME280;33408;52.062;11.722;2022-12-07T09:30:23;100774.94;;;3.77;100.00
47670;BME280;33408;52.062;11.722;2022-12-07T09:32:50;100779.28;;;3.87;100.00
47670;BME280;33408;52.062;11.722;2022-12-07T09:35:16;100773.38;;;3.96;100.00
47670;BME280;33408;52.062;11.722;2022-12-07T09:37:43;100770.81;;;3.96;100.00
47670;BME280;33408;52.062;11.722;2022-12-07T09:40:11;100767.38;;;3.92;100.00
47670;BME280;33408;52.062;11.722;2022-12-07T09:42:39;100763.22;;;4.07;100.00
47670;BME280;33408;52.062;11.722;2022-12-07T09:45:14;100757.97;;;3.94;100.00
47670;BME280;33408;52.062;11.722;2022-12-07T09:47:42;100763.16;;;3.99;100.00
47670;BME280;33408;52.062;11.722;2022-12-07T09:50:13;100754.53;;;3.89;100.00
47670;BME280;33408;52.062;11.722;2022-12-07T09:52:41;100752.88;;;3.97;100.00
47670;BME280;33408;52.062;11.722;2022-12-07T09:55:11;100749.41;;;3.92;100.00
47670;BME280;33408;52.062;11.722;2022-12-07T09:57:38;100752.78;;;3.83;100.00
47670;BME280;33408;52.062;11.722;2022-12-07T10:00:16;100755.38;;;3.88;100.00
47670;BME280;33408;52.062;11.722;2022-12-07T10:02:44;100757.91;;;3.85;100.00
47670;BME280;33408;52.062;11.722;2022-12-07T10:05:14;100756.19;;;3.86;100.00
47670;BME280;33408;52.062;11.722;2022-12-07T10:07:41;100760.44;;;3.80;100.00
47670;BME280;33408;52.062;11.722;2022-12-07T10:10:14;100755.34;;;3.83;100.00
47670;BME280;33408;52.062;11.722;2022-12-07T10:12:56;100756.16;;;3.81;100.00
47670;BME280;33408;52.062;11.722;2022-12-07T10:15:40;100759.59;;;3.84;100.00
47670;BME280;33408;52.062;11.722;2022-12-07T10:18:21;100752.81;;;3.88;100.00
47670;BME280;33408;52.062;11.722;2022-12-07T10:21:04;100758.78;;;3.87;100.00
47670;BME280;33408;52.062;11.722;2022-12-07T10:23:33;100751.19;;;3.98;100.00
47670;BME280;33408;52.062;11.722;2022-12-07T10:26:19;100757.19;;;3.98;100.00
47670;BME280;33408;52.062;11.722;2022-12-07T10:28:46;100745.22;;;4.00;100.00
47670;BME280;33408;52.062;11.722;2022-12-07T10:31:17;100753.81;;;4.06;100.00
47670;BME280;33408;52.062;11.722;2022-12-07T10:33:50;100750.44;;;4.10;100.00
47670;BME280;33408;52.062;11.722;2022-12-07T10:36:19;100750.47;;;4.13;100.00
47670;BME280;33408;52.062;11.722;2022-12-07T10:38:48;100748.78;;;4.16;100.00
47670;BME280;33408;52.062;11.722;2022-12-07T10:41:15;100741.09;;;4.19;100.00
47670;BME280;33408;52.062;11.722;2022-12-07T10:43:52;100744.53;;;4.22;100.00
47670;BME280;33408;52.062;11.722;2022-12-07T10:46:31;100743.75;;;4.30;100.00
47670;BME280;33408;52.062;11.722;2022-12-07T10:49:10;100740.44;;;4.45;100.00
47670;BME280;33408;52.062;11.722;2022-12-07T10:51:46;100726.78;;;4.51;100.00
47670;BME280;33408;52.062;11.722;2022-12-07T10:54:22;100730.09;;;4.37;100.00
47670;BME280;33408;52.062;11.722;2022-12-07T10:57:16;100727.59;;;4.44;100.00
47670;BME280;33408;52.062;11.722;2022-12-07T11:00:00;100723.31;;;4.40;100.00
47670;BME280;33408;52.062;11.722;2022-12-07T11:02:43;100722.50;;;4.48;100.00
47670;BME280;33408;52.062;11.722;2022-12-07T11:05:23;100731.00;;;4.43;100.00
47670;BME280;33408;52.062;11.722;2022-12-07T11:08:00;100731.00;;;4.43;100.00
47670;BME280;33408;52.062;11.722;2022-12-07T11:10:35;100731.91;;;4.54;100.00
47670;BME280;33408;52.062;11.722;2022-12-07T11:13:17;100725.19;;;4.73;100.00
47670;BME280;33408;52.062;11.722;2022-12-07T11:18:46;100717.44;;;4.65;100.00
47670;BME280;33408;52.062;11.722;2022-12-07T11:21:21;100720.94;;;4.78;100.00
47670;BME280;33408;52.062;11.722;2022-12-07T11:23:56;100718.38;;;4.81;100.00
47670;BME280;33408;52.062;11.722;2022-12-07T11:26:36;100719.28;;;4.85;100.00
47670;BME280;33408;52.062;11.722;2022-12-07T11:29:19;100718.34;;;4.70;100.00
47670;BME280;33408;52.062;11.722;2022-12-07T11:32:00;100715.81;;;4.73;100.00
47670;BME280;33408;52.062;11.722;2022-12-07T11:34:39;100707.19;;;4.62;100.00
47670;BME280;33408;52.062;11.722;2022-12-07T11:37:13;100719.22;;;4.74;100.00
47670;BME280;33408;52.062;11.722;2022-12-07T11:39:46;100706.41;;;4.77;100.00
47670;BME280;33408;52.062;11.722;2022-12-07T11:42:20;100703.81;;;4.74;100.00
47670;BME280;33408;52.062;11.722;2022-12-07T11:44:50;100715.78;;;4.78;100.00
47670;BME280;33408;52.062;11.722;2022-12-07T11:47:25;100704.69;;;4.79;100.00
47670;BME280;33408;52.062;11.722;2022-12-07T11:49:58;100704.66;;;4.76;100.00
47670;BME280;33408;52.062;11.722;2022-12-07T11:52:32;100706.38;;;4.74;100.00
47670;BME280;33408;52.062;11.722;2022-12-07T11:55:16;100701.16;;;4.62;100.00
47670;BME280;33408;52.062;11.722;2022-12-07T11:57:50;100702.06;;;4.68;100.00
47670;BME280;33408;52.062;11.722;2022-12-07T12:00:19;100699.50;;;4.71;100.00
47670;BME280;33408;52.062;11.722;2022-12-07T12:02:49;100696.00;;;4.57;100.00
47670;BME280;33408;52.062;11.722;2022-12-07T12:05:21;100696.16;;;4.85;100.00
47670;BME280;33408;52.062;11.722;2022-12-07T12:07:52;100698.72;;;4.85;100.00
47670;BME280;33408;52.062;11.722;2022-12-07T12:10:25;100709.75;;;4.68;100.00
47670;BME280;33408;52.062;11.722;2022-12-07T12:13:09;100707.22;;;4.73;100.00
47670;BME280;33408;52.062;11.722;2022-12-07T12:15:48;100707.22;;;4.73;100.00
47670;BME280;33408;52.062;11.722;2022-12-07T12:18:32;100706.34;;;4.71;100.00
47670;BME280;33408;52.062;11.722;2022-12-07T12:21:08;100702.16;;;4.88;100.00
47670;BME280;33408;52.062;11.722;2022-12-07T12:23:40;100702.19;;;4.95;100.00
47670;BME280;33408;52.062;11.722;2022-12-07T12:26:14;100696.22;;;5.00;100.00
47670;BME280;33408;52.062;11.722;2022-12-07T12:28:51;100691.84;;;4.81;100.00
47670;BME280;33408;52.062;11.722;2022-12-07T12:31:32;100687.63;;;4.93;100.00
47670;BME280;33408;52.062;11.722;2022-12-07T12:34:02;100687.59;;;4.90;100.00
47670;BME280;33408;52.062;11.722;2022-12-07T12:36:46;100685.00;;;4.81;100.00
47670;BME280;33408;52.062;11.722;2022-12-07T12:39:14;100686.72;;;4.81;100.00
47670;BME280;33408;52.062;11.722;2022-12-07T12:41:58;100685.88;;;4.80;100.00
47670;BME280;33408;52.062;11.722;2022-12-07T12:44:42;100682.41;;;4.73;100.00
47670;BME280;33408;52.062;11.722;2022-12-07T12:47:58;100679.88;;;4.77;100.00
47670;BME280;33408;52.062;11.722;2022-12-07T12:50:28;100680.72;;;4.79;100.00
47670;BME280;33408;52.062;11.722;2022-12-07T12:59:24;100678.06;;;4.62;100.00
47670;BME280;33408;52.062;11.722;2022-12-07T13:01:51;100682.09;;;4.19;100.00
47670;BME280;33408;52.062;11.722;2022-12-07T13:04:47;100690.34;;;3.78;100.00
47670;BME280;33408;52.062;11.722;2022-12-07T13:10:46;100683.44;;;3.74;100.00
47670;BME280;33408;52.062;11.722;2022-12-07T13:13:33;100686.16;;;3.90;100.00